createdAt,value
2023-01-11T00:01:42.035Z,0.67
2023-01-11T00:04:43.739Z,0.43
2023-01-11T00:07:45.414Z,0.50
2023-01-11T00:10:47.091Z,0.30
2023-01-11T00:13:48.816Z,0.37
2023-01-11T00:16:50.493Z,0.30
2023-01-11T00:19:52.158Z,0.50
2023-01-11T00:22:53.834Z,0.60
2023-01-11T00:25:55.530Z,0.40
2023-01-11T00:28:57.217Z,0.40
2023-01-11T00:31:59.178Z,0.40
2023-01-11T00:35:01.088Z,0.30
2023-01-11T00:38:02.747Z,0.50
2023-01-11T00:41:23.275Z,0.20
2023-01-11T00:44:43.695Z,0.43
2023-01-11T00:47:57.460Z,0.40
2023-01-11T00:50:59.362Z,0.67
2023-01-11T00:54:01.023Z,0.30
2023-01-11T00:57:03.152Z,0.30
2023-01-11T01:00:05.710Z,0.60
2023-01-11T01:03:08.801Z,0.50
2023-01-11T01:06:10.606Z,0.40
2023-01-11T01:09:12.334Z,0.30
2023-01-11T01:12:33.970Z,0.23
2023-01-11T01:15:36.101Z,0.43
2023-01-11T01:18:37.810Z,0.50
2023-01-11T01:21:39.763Z,0.37
2023-01-11T01:24:41.475Z,0.30
2023-01-11T01:27:44.400Z,0.50
2023-01-11T01:30:50.557Z,0.30
2023-01-11T01:33:52.242Z,0.40
2023-01-11T01:36:53.972Z,0.20
2023-01-11T01:39:55.689Z,0.30
2023-01-11T01:42:57.349Z,0.37
2023-01-11T01:45:59.050Z,0.53
2023-01-11T01:49:07.008Z,0.33
2023-01-11T01:52:10.009Z,0.50
2023-01-11T01:55:18.881Z,0.60
2023-01-11T01:58:26.764Z,0.53
2023-01-11T02:01:47.032Z,0.30
2023-01-11T02:04:49.491Z,0.40
2023-01-11T02:07:51.981Z,0.30
2023-01-11T02:10:54.296Z,0.30
2023-01-11T02:14:02.280Z,0.30
2023-01-11T02:17:04.095Z,0.20
2023-01-11T02:20:21.340Z,0.30
2023-01-11T02:23:58.525Z,0.30
2023-01-11T02:27:29.890Z,0.20
2023-01-11T02:30:57.642Z,0.30
2023-01-11T02:34:14.412Z,0.40
2023-01-11T02:37:28.140Z,0.30
2023-01-11T02:40:58.911Z,0.50
2023-01-11T02:44:31.322Z,0.30
2023-01-11T02:47:49.247Z,0.40
2023-01-11T02:51:22.167Z,0.20
2023-01-11T02:54:24.607Z,0.30
2023-01-11T02:57:29.403Z,0.30
2023-01-11T03:00:31.726Z,0.30
2023-01-11T03:03:34.079Z,0.30
2023-01-11T03:06:35.997Z,0.33
2023-01-11T03:09:56.797Z,0.40
2023-01-11T03:13:22.473Z,0.40
2023-01-11T03:17:02.111Z,0.20
2023-01-11T03:20:19.930Z,0.27
2023-01-11T03:23:53.920Z,0.30
2023-01-11T03:27:21.108Z,0.40
2023-01-11T03:30:35.273Z,0.40
2023-01-11T03:33:46.125Z,0.30
2023-01-11T03:36:52.277Z,0.37
2023-01-11T03:40:04.067Z,0.50
2023-01-11T03:43:11.337Z,0.30
2023-01-11T03:46:17.892Z,0.63
2023-01-11T03:49:34.347Z,0.30
2023-01-11T03:52:38.754Z,0.30
2023-01-11T03:55:44.029Z,0.40
2023-01-11T03:58:45.717Z,0.40
2023-01-11T04:01:47.677Z,0.30
2023-01-11T04:04:49.385Z,0.40
2023-01-11T04:07:52.538Z,0.40
2023-01-11T04:10:54.505Z,0.50
2023-01-11T04:13:56.250Z,0.40
2023-01-11T04:16:57.952Z,0.30
2023-01-11T04:20:00.061Z,0.60
2023-01-11T04:23:02.050Z,0.60
2023-01-11T04:26:03.804Z,0.43
2023-01-11T04:29:05.781Z,0.80
2023-01-11T04:32:07.462Z,0.60
2023-01-11T04:35:09.383Z,0.67
2023-01-11T04:38:11.203Z,0.60
2023-01-11T04:41:31.680Z,0.70
2023-01-11T04:44:33.682Z,0.47
2023-01-11T04:47:35.393Z,0.40
2023-01-11T04:50:37.273Z,0.60
2023-01-11T04:53:39.092Z,0.50
2023-01-11T04:56:40.860Z,0.80
2023-01-11T04:59:42.846Z,0.50
2023-01-11T05:02:44.569Z,0.47
2023-01-11T05:05:55.938Z,0.77
2023-01-11T05:08:57.617Z,0.50
2023-01-11T05:11:59.339Z,0.63
2023-01-11T05:15:01.072Z,0.50
2023-01-11T05:18:02.734Z,0.70
2023-01-11T05:21:07.966Z,0.60
2023-01-11T05:24:13.408Z,0.50
2023-01-11T05:27:15.117Z,0.50
2023-01-11T05:30:17.135Z,0.40
2023-01-11T05:33:19.374Z,0.50
2023-01-11T05:36:22.507Z,0.40
2023-01-11T05:39:24.396Z,0.80
2023-01-11T05:42:26.070Z,0.57
2023-01-11T05:45:32.246Z,0.47
2023-01-11T05:48:33.956Z,0.70
2023-01-11T05:51:36.042Z,0.77
2023-01-11T05:54:37.737Z,0.77
2023-01-11T05:57:43.426Z,0.60
2023-01-11T06:00:48.808Z,0.63
2023-01-11T06:03:51.382Z,1.10
2023-01-11T06:06:53.242Z,0.93
2023-01-11T06:09:55.190Z,0.77
2023-01-11T06:13:16.862Z,0.90
2023-01-11T06:16:20.695Z,1.13
2023-01-11T06:19:22.440Z,1.20
2023-01-11T06:22:24.113Z,1.10
2023-01-11T06:25:32.751Z,1.17
2023-01-11T06:28:34.747Z,1.30
2023-01-11T06:31:36.423Z,1.33
2023-01-11T06:34:38.127Z,1.70
2023-01-11T06:37:39.904Z,1.80
2023-01-11T06:40:42.536Z,1.50
2023-01-11T06:43:44.252Z,1.90
2023-01-11T06:46:45.971Z,2.10
2023-01-11T06:49:47.643Z,1.97
2023-01-11T06:52:59.868Z,2.03
2023-01-11T06:56:01.577Z,1.97
2023-01-11T06:59:03.659Z,2.20
2023-01-11T07:02:06.450Z,2.33
2023-01-11T07:05:08.642Z,2.20
2023-01-11T07:08:10.491Z,2.83
2023-01-11T07:11:12.365Z,3.27
2023-01-11T07:14:19.713Z,3.43
2023-01-11T07:17:21.370Z,3.40
2023-01-11T07:20:24.277Z,4.37
2023-01-11T07:23:26.065Z,3.97
2023-01-11T07:26:28.180Z,5.43
2023-01-11T07:29:29.953Z,4.63
2023-01-11T07:32:31.599Z,5.50
2023-01-11T07:35:33.377Z,5.70
2023-01-11T07:38:35.070Z,5.40
2023-01-11T07:41:55.379Z,7.30
2023-01-11T07:44:58.003Z,6.20
2023-01-11T07:47:59.684Z,5.83
2023-01-11T07:51:01.377Z,6.10
2023-01-11T07:54:03.851Z,5.97
2023-01-11T07:57:05.784Z,5.57
2023-01-11T08:00:08.320Z,6.07
2023-01-11T08:03:13.322Z,5.20
2023-01-11T08:06:15.388Z,5.43
2023-01-11T08:09:17.090Z,6.20
2023-01-11T08:12:37.324Z,5.33
2023-01-11T08:15:42.403Z,5.37
2023-01-11T08:18:44.234Z,5.30
2023-01-11T08:21:45.901Z,5.00
2023-01-11T08:24:47.703Z,5.10
2023-01-11T08:27:49.763Z,5.20
2023-01-11T08:30:51.484Z,4.47
2023-01-11T08:33:53.259Z,4.67
2023-01-11T08:37:01.792Z,5.07
2023-01-11T08:40:03.842Z,4.60
2023-01-11T08:43:05.561Z,4.17
2023-01-11T08:46:10.432Z,3.17
2023-01-11T08:49:12.358Z,4.17
2023-01-11T08:52:14.588Z,4.43
2023-01-11T08:55:16.616Z,2.90
2023-01-11T08:58:20.712Z,3.13
2023-01-11T09:01:23.294Z,3.90
2023-01-11T09:04:25.913Z,4.37
2023-01-11T09:07:27.766Z,4.90
2023-01-11T09:10:29.835Z,3.10
2023-01-11T09:13:31.732Z,3.97
2023-01-11T09:16:33.455Z,3.17
2023-01-11T09:19:35.180Z,3.20
2023-01-11T09:22:36.878Z,2.97
2023-01-11T09:25:38.559Z,2.60
2023-01-11T09:28:40.555Z,2.60
2023-01-11T09:31:42.349Z,2.30
2023-01-11T09:34:46.815Z,3.13
2023-01-11T09:37:59.017Z,2.63
2023-01-11T09:41:16.682Z,2.07
2023-01-11T09:44:23.296Z,1.97
2023-01-11T09:47:46.293Z,2.07
2023-01-11T09:50:48.666Z,1.83
2023-01-11T09:53:52.193Z,2.03
2023-01-11T09:57:19.335Z,2.97
2023-01-11T10:00:31.724Z,2.67
2023-01-11T10:04:06.109Z,2.00
2023-01-11T10:07:45.830Z,2.07
2023-01-11T10:18:31.017Z,2.23
2023-01-11T10:19:11.823Z,1.80
2023-01-11T10:22:02.025Z,2.33
2023-01-11T10:25:16.834Z,2.60
2023-01-11T10:28:28.065Z,2.47
2023-01-11T10:31:44.830Z,3.57
2023-01-11T10:35:04.497Z,2.07
2023-01-11T10:38:27.968Z,2.00
2023-01-11T10:41:52.215Z,2.27
2023-01-11T10:45:03.047Z,1.80
2023-01-11T10:48:27.329Z,2.60
2023-01-11T10:51:46.199Z,2.17
2023-01-11T10:54:53.186Z,2.40
2023-01-11T10:58:17.096Z,2.27
2023-01-11T11:01:46.156Z,2.00
2023-01-11T11:05:19.225Z,2.13
2023-01-11T11:08:41.879Z,1.80
2023-01-11T11:11:53.155Z,1.97
2023-01-11T11:15:16.538Z,2.50
2023-01-11T11:18:18.288Z,2.47
2023-01-11T11:21:28.500Z,2.73
2023-01-11T11:24:42.742Z,2.30
2023-01-11T11:28:06.524Z,2.77
2023-01-11T11:31:08.550Z,2.30
2023-01-11T11:34:21.295Z,1.97
2023-01-11T11:37:31.175Z,2.47
2023-01-11T11:40:34.582Z,2.40
2023-01-11T11:43:44.818Z,2.70
2023-01-11T11:47:06.544Z,1.60
2023-01-11T11:50:42.065Z,2.43
2023-01-11T11:53:55.487Z,1.43
2023-01-11T11:56:59.814Z,1.87
2023-01-11T12:00:08.969Z,1.83
2023-01-11T12:03:16.506Z,1.40
2023-01-11T12:06:24.643Z,1.50
2023-01-11T12:09:32.024Z,1.73
2023-01-11T12:12:34.317Z,1.47
2023-01-11T12:15:36.399Z,1.57
2023-01-11T12:18:41.306Z,1.57
2023-01-11T12:21:43.059Z,1.47
2023-01-11T12:25:08.713Z,1.50
2023-01-11T12:28:33.500Z,1.83
2023-01-11T12:31:43.206Z,1.43
2023-01-11T12:35:11.236Z,2.07
2023-01-11T12:38:29.723Z,2.50
2023-01-11T12:42:06.696Z,2.30
2023-01-11T12:45:20.027Z,1.57
2023-01-11T12:48:55.982Z,1.77
2023-01-11T12:52:35.971Z,1.77
2023-01-11T12:55:58.929Z,1.70
2023-01-11T12:59:18.872Z,2.17
2023-01-11T13:03:05.359Z,1.87
2023-01-11T13:06:16.322Z,1.63
2023-01-11T13:09:43.595Z,1.87
2023-01-11T13:13:01.131Z,2.00
2023-01-11T13:16:25.249Z,1.93
2023-01-11T13:19:41.466Z,2.20
2023-01-11T13:22:49.095Z,1.93
2023-01-11T13:25:52.878Z,2.10
2023-01-11T13:29:03.318Z,1.70
2023-01-11T13:32:11.741Z,2.23
2023-01-11T13:35:17.656Z,1.93
2023-01-11T13:38:31.793Z,2.13
2023-01-11T13:41:51.775Z,2.40
2023-01-11T13:45:18.503Z,2.20
2023-01-11T13:48:42.448Z,2.00
2023-01-11T13:52:15.203Z,2.07
2023-01-11T13:55:42.436Z,2.83
2023-01-11T13:58:56.602Z,3.07
2023-01-11T14:02:03.906Z,2.60
2023-01-11T14:05:21.336Z,2.87
2023-01-11T14:08:42.959Z,1.70
2023-01-11T14:12:22.321Z,1.87
2023-01-11T14:15:34.064Z,1.80
2023-01-11T14:19:01.609Z,1.97
2023-01-11T14:22:12.603Z,1.90
2023-01-11T14:25:22.579Z,2.30
2023-01-11T14:28:45.407Z,2.40
2023-01-11T14:31:47.426Z,2.37
2023-01-11T14:35:11.041Z,2.50
2023-01-11T14:38:27.681Z,2.23
2023-01-11T14:41:44.451Z,1.77
2023-01-11T14:45:04.735Z,1.97
2023-01-11T14:48:26.481Z,1.90
2023-01-11T14:51:37.934Z,1.70
2023-01-11T14:54:45.338Z,2.53
2023-01-11T14:57:56.135Z,2.40
2023-01-11T15:00:57.786Z,2.40
2023-01-11T15:03:59.544Z,1.67
2023-01-11T15:07:01.897Z,2.23
2023-01-11T15:10:28.864Z,2.50
2023-01-11T15:13:36.291Z,2.13
2023-01-11T15:16:57.396Z,1.30
2023-01-11T15:20:10.435Z,2.00
2023-01-11T15:23:17.522Z,3.00
2023-01-11T15:26:20.436Z,2.00
2023-01-11T15:29:31.959Z,1.80
2023-01-11T15:32:35.544Z,2.37
2023-01-11T15:35:37.338Z,2.63
2023-01-11T15:38:38.941Z,1.37
2023-01-11T15:42:16.616Z,2.37
2023-01-11T15:45:27.143Z,1.83
2023-01-11T15:49:00.340Z,1.67
2023-01-11T15:52:08.998Z,1.70
2023-01-11T15:55:34.924Z,1.77
2023-01-11T15:58:45.591Z,3.27
2023-01-11T16:01:57.206Z,2.43
2023-01-11T16:05:21.648Z,2.43
2023-01-11T16:08:30.948Z,2.03
2023-01-11T16:12:06.233Z,2.10
2023-01-11T16:15:20.001Z,2.63
2023-01-11T16:18:25.681Z,2.70
2023-01-11T16:21:31.256Z,2.80
2023-01-11T16:24:42.480Z,1.67
2023-01-11T16:27:50.982Z,2.83
2023-01-11T16:30:58.747Z,2.47
2023-01-11T16:34:06.789Z,2.07
2023-01-11T16:37:24.235Z,2.57
2023-01-11T16:40:36.190Z,1.80
2023-01-11T16:43:49.315Z,2.40
2023-01-11T16:47:21.224Z,2.30
2023-01-11T16:50:28.390Z,3.77
2023-01-11T16:53:35.542Z,2.43
2023-01-11T16:56:37.415Z,2.13
2023-01-11T16:59:39.344Z,1.97
2023-01-11T17:02:43.161Z,3.03
2023-01-11T17:06:07.185Z,3.03
2023-01-11T17:09:20.908Z,2.30
2023-01-11T17:12:27.034Z,2.30
2023-01-11T17:15:56.309Z,2.73
2023-01-11T17:19:12.592Z,2.53
2023-01-11T17:22:31.336Z,2.60
2023-01-11T17:25:44.344Z,2.57
2023-01-11T17:28:48.525Z,2.13
2023-01-11T17:31:50.343Z,2.60
2023-01-11T17:34:52.439Z,2.07
2023-01-11T17:38:04.283Z,2.37
2023-01-11T17:41:27.539Z,2.00
2023-01-11T17:44:47.882Z,2.00
2023-01-11T17:47:54.132Z,1.43
2023-01-11T17:51:00.490Z,2.13
2023-01-11T17:54:02.293Z,1.80
2023-01-11T17:57:05.062Z,1.60
2023-01-11T18:00:26.114Z,2.30
2023-01-11T18:03:28.520Z,1.67
2023-01-11T18:06:40.161Z,1.73
2023-01-11T18:09:50.282Z,1.10
2023-01-11T18:12:52.991Z,1.20
2023-01-11T18:15:54.817Z,1.90
2023-01-11T18:18:56.919Z,2.40
2023-01-11T18:21:58.698Z,1.67
2023-01-11T18:25:04.157Z,1.93
2023-01-11T18:28:12.207Z,1.43
2023-01-11T18:31:14.070Z,1.37
2023-01-11T18:34:16.074Z,1.80
2023-01-11T18:37:21.367Z,1.47
2023-01-11T18:40:23.672Z,1.13
2023-01-11T18:43:31.112Z,1.57
2023-01-11T18:46:32.926Z,1.00
2023-01-11T18:49:34.827Z,1.83
2023-01-11T18:52:37.396Z,1.40
2023-01-11T18:55:39.393Z,1.70
2023-01-11T18:58:41.507Z,1.60
2023-01-11T19:01:59.027Z,1.67
2023-01-11T19:05:09.801Z,1.80
2023-01-11T19:08:11.707Z,2.07
2023-01-11T19:11:15.429Z,2.47
2023-01-11T19:14:17.744Z,1.73
2023-01-11T19:17:19.707Z,2.40
2023-01-11T19:20:21.526Z,1.97
2023-01-11T19:26:28.015Z,1.63
2023-01-11T19:29:30.579Z,1.97
2023-01-11T19:32:33.935Z,1.33
2023-01-11T19:35:42.727Z,2.30
2023-01-11T19:38:50.122Z,1.90
2023-01-11T19:41:56.012Z,1.97
2023-01-11T19:44:57.928Z,1.90
2023-01-11T19:47:59.788Z,1.50
2023-01-11T19:51:03.461Z,1.87
2023-01-11T19:54:05.613Z,1.50
2023-01-11T19:57:14.152Z,2.27
2023-01-11T20:00:17.337Z,1.97
2023-01-11T20:03:19.060Z,2.20
2023-01-11T20:06:21.058Z,1.60
2023-01-11T20:09:22.955Z,2.30
2023-01-11T20:12:24.745Z,1.63
2023-01-11T20:15:26.712Z,1.70
2023-01-11T20:18:28.835Z,1.80
2023-01-11T20:21:34.027Z,1.73
2023-01-11T20:24:37.740Z,2.13
2023-01-11T20:27:41.817Z,1.50
2023-01-11T20:30:43.621Z,1.40
2023-01-11T20:33:45.835Z,2.13
2023-01-11T20:36:48.938Z,1.13
2023-01-11T20:39:50.954Z,1.50
2023-01-11T20:42:52.807Z,1.50
2023-01-11T20:45:57.005Z,1.67
2023-01-11T20:48:59.616Z,1.47
2023-01-11T20:52:01.531Z,1.80
2023-01-11T20:55:03.629Z,1.77
2023-01-11T20:58:05.585Z,1.50
2023-01-11T21:01:09.596Z,1.40
2023-01-11T21:04:18.307Z,1.60
2023-01-11T21:07:20.299Z,1.73
2023-01-11T21:10:22.432Z,1.40
2023-01-11T21:13:24.351Z,1.43
2023-01-11T21:16:28.668Z,1.60
2023-01-11T21:19:31.149Z,1.87
2023-01-11T21:22:32.997Z,1.63
2023-01-11T21:25:35.119Z,2.13
2023-01-11T21:28:37.055Z,1.93
2023-01-11T21:31:40.235Z,1.63
2023-01-11T21:34:42.182Z,2.03
2023-01-11T21:37:43.972Z,1.90
2023-01-11T21:40:45.755Z,1.93
2023-01-11T21:43:48.684Z,1.90
2023-01-11T21:46:50.766Z,1.67
2023-01-11T21:49:53.975Z,1.03
2023-01-11T21:52:55.859Z,1.80
2023-01-11T21:56:05.487Z,1.47
2023-01-11T21:59:07.720Z,1.50
2023-01-11T22:02:11.090Z,1.20
2023-01-11T22:05:13.189Z,1.53
2023-01-11T22:08:15.129Z,1.70
2023-01-11T22:11:17.840Z,1.67
2023-01-11T22:14:19.750Z,1.47
2023-01-11T22:17:21.522Z,1.80
2023-01-11T22:20:23.572Z,1.03
2023-01-11T22:23:28.962Z,2.33
2023-01-11T22:26:33.443Z,1.10
2023-01-11T22:29:35.509Z,1.30
2023-01-11T22:32:37.675Z,1.73
2023-01-11T22:35:39.545Z,1.00
2023-01-11T22:38:41.849Z,2.07
2023-01-11T22:41:45.565Z,1.40
2023-01-11T22:44:47.519Z,1.70
2023-01-11T22:47:51.344Z,1.43
2023-01-11T22:50:56.519Z,1.07
2023-01-11T22:53:58.595Z,1.80
2023-01-11T22:57:00.542Z,1.67
2023-01-11T23:00:04.589Z,1.40
2023-01-11T23:03:06.466Z,1.33
2023-01-11T23:06:09.454Z,1.07
2023-01-11T23:09:15.921Z,0.97
2023-01-11T23:12:37.007Z,1.80
2023-01-11T23:15:39.753Z,1.87
2023-01-11T23:18:41.525Z,1.33
2023-01-11T23:21:44.384Z,0.90
2023-01-11T23:24:46.060Z,0.83
2023-01-11T23:27:47.732Z,0.50
2023-01-11T23:30:49.397Z,0.90
2023-01-11T23:33:57.667Z,0.80
2023-01-11T23:36:59.371Z,1.20
2023-01-11T23:40:01.135Z,1.10
2023-01-11T23:43:02.799Z,1.00
2023-01-11T23:46:23.861Z,1.47
2023-01-11T23:49:26.513Z,2.00
2023-01-11T23:52:30.789Z,1.20
2023-01-11T23:55:32.470Z,1.43
2023-01-11T23:58:34.223Z,1.83
